»·PEaware :: N9135K KOXR-KRNM

N9135K :: KOXR-KRNM

FLIGHT INFORMATION

Flight Status: Arrived
Operator: Privately registered:
United States
More flights under this callsign
Pilot: John R. (31973)
Aircraft: CESSNA 172 SKYHAWK
(C172)
More flights by this aircraft type
Origin: KOXR Oxnard
United States
Destination: KRNM Ramona
United States
More flights between these airports :: More routes between these airports
Route: VTU044 GINNA V326 VNY V186 ROBNN V208 JLI
File this flight plan on PilotEdge
Remarks: TEC route VTUP30
Altitude:
(Current/Filed)
7,000ft
Speed:
(Current/Filed)
100kts
Departed: 01-Feb-21 02:17 PM
Arrived: 01-Feb-21 03:54 PM
Distance/Time
Traveled:
134nm/1:37
Distance/Time
To Go:
Arrived

Flight Plot

Page will automatically refresh every two minutes.


Map Options




Map Legend


Flown Route
Filed Route
Departure Airport
Arrival Airport
Navaid (VOR, NDB)
Fix

Horizontal Profiles

Position Reports

Time Latitude Longitude Heading Altitude Ground
Speed
01-Feb-21 14:03 34.198738 -119.200879 269 46ft 0kts
01-Feb-21 14:04 34.198738 -119.200880 269 46ft 0kts
01-Feb-21 14:05 34.198738 -119.200880 269 46ft 0kts
01-Feb-21 14:06 34.198738 -119.200881 269 46ft 0kts
01-Feb-21 14:07 34.198738 -119.200881 269 46ft 0kts
01-Feb-21 14:08 34.198738 -119.200882 269 46ft 0kts
01-Feb-21 14:09 34.198738 -119.200882 269 46ft 0kts
01-Feb-21 14:10 34.198738 -119.200882 269 46ft 0kts
01-Feb-21 14:11 34.198738 -119.200883 269 46ft 0kts
01-Feb-21 14:12 34.199537 -119.200003 53 46ft 10kts
01-Feb-21 14:13 34.200246 -119.198126 358 46ft 0kts
01-Feb-21 14:14 34.200246 -119.198126 358 46ft 0kts
01-Feb-21 14:15 34.200247 -119.198126 358 46ft 0kts
01-Feb-21 14:16 34.200753 -119.211960 269 298ft 79kts
01-Feb-21 14:17 34.200122 -119.240086 267 1075ft 92kts
01-Feb-21 14:18 34.199200 -119.273096 268 1815ft 100kts
01-Feb-21 14:19 34.198250 -119.307006 268 2513ft 100kts
01-Feb-21 14:20 34.197318 -119.340315 267 3244ft 96kts
01-Feb-21 14:21 34.207535 -119.362674 354 4034ft 91kts
01-Feb-21 14:22 34.214544 -119.337498 86 4835ft 88kts
01-Feb-21 14:23 34.215789 -119.307831 86 5589ft 90kts
01-Feb-21 14:24 34.217105 -119.276592 86 6210ft 94kts
01-Feb-21 14:25 34.218440 -119.244916 86 6807ft 94kts
01-Feb-21 14:26 34.219889 -119.210634 87 7010ft 113kts
01-Feb-21 14:27 34.221541 -119.171595 87 7000ft 116kts
01-Feb-21 14:28 34.223197 -119.132448 87 6998ft 115kts
01-Feb-21 14:29 34.224812 -119.094289 87 6999ft 112kts
01-Feb-21 14:30 34.225644 -119.056433 89 6999ft 112kts
01-Feb-21 14:31 34.226149 -119.018730 89 7000ft 112kts
01-Feb-21 14:32 34.226653 -118.981010 89 7000ft 112kts
01-Feb-21 14:33 34.227158 -118.943300 89 7000ft 112kts
01-Feb-21 14:34 34.227664 -118.905495 89 7000ft 112kts
01-Feb-21 14:35 34.228169 -118.867779 89 7000ft 112kts
01-Feb-21 14:36 34.228374 -118.830041 90 7000ft 112kts
01-Feb-21 14:37 34.228334 -118.792629 90 6999ft 110kts
01-Feb-21 14:38 34.228295 -118.755562 90 6999ft 110kts
01-Feb-21 14:39 34.228255 -118.718521 90 7000ft 110kts
01-Feb-21 14:40 34.228215 -118.681462 90 7000ft 110kts
01-Feb-21 14:41 34.228175 -118.644454 90 7000ft 110kts
01-Feb-21 14:42 34.228136 -118.607462 90 7000ft 110kts
01-Feb-21 14:43 34.227654 -118.570433 91 7000ft 110kts
01-Feb-21 14:44 34.227077 -118.533285 91 7000ft 110kts
01-Feb-21 14:45 34.225663 -118.496387 95 7000ft 110kts
01-Feb-21 14:46 34.219349 -118.460346 110 7000ft 110kts
01-Feb-21 14:47 34.207992 -118.425957 112 6999ft 110kts
01-Feb-21 14:48 34.195970 -118.391878 113 7000ft 110kts
01-Feb-21 14:49 34.184417 -118.357597 109 6999ft 110kts
01-Feb-21 14:50 34.174848 -118.322361 108 7000ft 110kts
01-Feb-21 14:51 34.165035 -118.287317 110 7000ft 110kts
01-Feb-21 14:52 34.154300 -118.252701 111 7000ft 110kts
01-Feb-21 14:53 34.143226 -118.218036 111 7000ft 110kts
01-Feb-21 14:54 34.132188 -118.183487 111 7000ft 110kts
01-Feb-21 14:55 34.121174 -118.149021 111 7000ft 110kts
01-Feb-21 14:57 34.109647 -118.114628 112 7000ft 110kts
01-Feb-21 14:58 34.098150 -118.080338 111 6999ft 110kts
01-Feb-21 14:59 34.087111 -118.045829 111 7000ft 110kts
01-Feb-21 15:00 34.076040 -118.011201 111 7000ft 110kts
01-Feb-21 15:01 34.065015 -117.976719 111 7000ft 110kts
01-Feb-21 15:02 34.053969 -117.942174 111 7000ft 110kts
01-Feb-21 15:03 34.042926 -117.907650 111 7000ft 110kts
01-Feb-21 15:04 34.031880 -117.873116 111 7000ft 110kts
01-Feb-21 15:05 34.021222 -117.838444 109 7000ft 110kts
01-Feb-21 15:06 34.011184 -117.803481 109 7000ft 110kts
01-Feb-21 15:07 34.001157 -117.768561 109 7000ft 110kts
01-Feb-21 15:08 33.989890 -117.734265 112 7000ft 110kts
01-Feb-21 15:09 33.978269 -117.699785 112 6999ft 110kts
01-Feb-21 15:10 33.966261 -117.665786 113 7000ft 110kts
01-Feb-21 15:11 33.954226 -117.631784 113 7000ft 110kts
01-Feb-21 15:12 33.942174 -117.597737 113 7000ft 110kts
01-Feb-21 15:13 33.930540 -117.563522 112 7000ft 110kts
01-Feb-21 15:14 33.917776 -117.529995 132 6995ft 110kts
01-Feb-21 15:14 33.897364 -117.511495 145 7000ft 110kts
01-Feb-21 15:16 33.867465 -117.487558 146 7000ft 110kts
01-Feb-21 15:16 33.846196 -117.470359 146 7000ft 110kts
01-Feb-21 15:17 33.821140 -117.449052 144 7000ft 110kts
01-Feb-21 15:18 33.796256 -117.427389 144 7000ft 110kts
01-Feb-21 15:19 33.771356 -117.405718 144 7000ft 110kts
01-Feb-21 15:20 33.746497 -117.384090 144 7000ft 110kts
01-Feb-21 15:21 33.720695 -117.363848 146 7000ft 110kts
01-Feb-21 15:22 33.695411 -117.342874 145 7000ft 110kts
01-Feb-21 15:23 33.670009 -117.322188 147 7000ft 110kts
01-Feb-21 15:24 33.644107 -117.302075 147 7000ft 110kts
01-Feb-21 15:25 33.619578 -117.279955 143 6999ft 110kts
01-Feb-21 15:26 33.594297 -117.259020 145 6999ft 110kts
01-Feb-21 15:27 33.568894 -117.238097 145 7000ft 110kts
01-Feb-21 15:28 33.543552 -117.217259 145 7000ft 110kts
01-Feb-21 15:29 33.518206 -117.196424 145 7000ft 110kts
01-Feb-21 15:30 33.492879 -117.175610 145 7000ft 110kts
01-Feb-21 15:31 33.467476 -117.154742 145 7000ft 110kts
01-Feb-21 15:32 33.438125 -117.147292 178 7000ft 110kts
01-Feb-21 15:33 33.407348 -117.146349 178 6999ft 110kts
01-Feb-21 15:34 33.379574 -117.134313 152 6606ft 104kts
01-Feb-21 15:35 33.353837 -117.118324 152 6001ft 104kts
01-Feb-21 15:36 33.328100 -117.102341 152 5397ft 104kts
01-Feb-21 15:37 33.302839 -117.086656 152 4981ft 93kts
01-Feb-21 15:38 33.279800 -117.072353 152 5001ft 94kts
01-Feb-21 15:39 33.256372 -117.057814 152 4904ft 99kts
01-Feb-21 15:40 33.231455 -117.042356 152 4316ft 101kts
01-Feb-21 15:41 33.208734 -117.028262 152 3989ft 84kts
01-Feb-21 15:42 33.187734 -117.015210 152 4005ft 87kts
01-Feb-21 15:43 33.166116 -117.001735 152 3996ft 86kts
01-Feb-21 15:44 33.144392 -116.988197 152 4000ft 89kts
01-Feb-21 15:45 33.122428 -116.974512 152 3999ft 89kts
01-Feb-21 15:46 33.105177 -116.954412 122 4002ft 89kts
01-Feb-21 15:47 33.091761 -116.929229 122 3879ft 94kts
01-Feb-21 15:48 33.077324 -116.902141 123 3270ft 98kts
01-Feb-21 15:49 33.069886 -116.873456 100 2974ft 79kts
01-Feb-21 15:50 33.057654 -116.858403 190 3024ft 81kts
01-Feb-21 15:51 33.040909 -116.871982 260 2867ft 99kts
01-Feb-21 15:52 33.036872 -116.900066 280 1662ft 76kts
01-Feb-21 15:53 33.039077 -116.912354 350 1396ft 7kts
01-Feb-21 15:54 33.039319 -116.912136 97 1396ft 10kts
01-Feb-21 15:55 33.040173 -116.911028 9 1396ft 0kts

Navigation Log

Ident Type
Flight plan parsing failed, navigation log unavailable